sensor_id;sensor_type;location;lat;lon;timestamp;P1;durP1;ratioP1;P2;durP2;ratioP2
17422;SDS011;8829;47.932;7.810;2023-11-21T00:02:04;3.50;;;1.00;;
17422;SDS011;8829;47.932;7.810;2023-11-21T00:04:32;4.03;;;1.13;;
17422;SDS011;8829;47.932;7.810;2023-11-21T00:06:58;3.50;;;1.30;;
17422;SDS011;8829;47.932;7.810;2023-11-21T00:09:25;3.27;;;1.60;;
17422;SDS011;8829;47.932;7.810;2023-11-21T00:11:52;1.60;;;1.10;;
17422;SDS011;8829;47.932;7.810;2023-11-21T00:14:19;2.67;;;1.30;;
17422;SDS011;8829;47.932;7.810;2023-11-21T00:16:45;8.27;;;1.37;;
17422;SDS011;8829;47.932;7.810;2023-11-21T00:19:12;4.23;;;1.10;;
17422;SDS011;8829;47.932;7.810;2023-11-21T00:21:40;3.50;;;1.00;;
17422;SDS011;8829;47.932;7.810;2023-11-21T00:24:09;3.63;;;1.47;;
17422;SDS011;8829;47.932;7.810;2023-11-21T00:26:38;2.13;;;1.13;;
17422;SDS011;8829;47.932;7.810;2023-11-21T00:29:05;3.37;;;1.07;;
17422;SDS011;8829;47.932;7.810;2023-11-21T00:31:33;5.50;;;1.20;;
17422;SDS011;8829;47.932;7.810;2023-11-21T00:34:01;2.80;;;1.00;;
17422;SDS011;8829;47.932;7.810;2023-11-21T00:36:28;2.20;;;1.13;;
17422;SDS011;8829;47.932;7.810;2023-11-21T00:38:56;3.23;;;1.03;;
17422;SDS011;8829;47.932;7.810;2023-11-21T00:41:24;3.90;;;1.13;;
17422;SDS011;8829;47.932;7.810;2023-11-21T00:43:52;1.00;;;0.83;;
17422;SDS011;8829;47.932;7.810;2023-11-21T00:46:20;2.67;;;1.33;;
17422;SDS011;8829;47.932;7.810;2023-11-21T00:48:46;2.10;;;1.23;;
17422;SDS011;8829;47.932;7.810;2023-11-21T00:51:13;1.70;;;0.93;;
17422;SDS011;8829;47.932;7.810;2023-11-21T00:53:40;0.93;;;0.60;;
17422;SDS011;8829;47.932;7.810;2023-11-21T00:56:08;1.27;;;0.87;;
17422;SDS011;8829;47.932;7.810;2023-11-21T00:58:34;2.50;;;0.70;;
17422;SDS011;8829;47.932;7.810;2023-11-21T01:01:01;2.83;;;0.90;;
17422;SDS011;8829;47.932;7.810;2023-11-21T01:03:28;2.23;;;0.70;;
17422;SDS011;8829;47.932;7.810;2023-11-21T01:05:55;2.90;;;0.80;;
17422;SDS011;8829;47.932;7.810;2023-11-21T01:08:22;1.43;;;0.97;;
17422;SDS011;8829;47.932;7.810;2023-11-21T01:10:49;1.40;;;0.87;;
17422;SDS011;8829;47.932;7.810;2023-11-21T01:13:17;1.27;;;0.80;;
17422;SDS011;8829;47.932;7.810;2023-11-21T01:15:44;1.30;;;0.90;;
17422;SDS011;8829;47.932;7.810;2023-11-21T01:18:11;2.80;;;0.60;;
17422;SDS011;8829;47.932;7.810;2023-11-21T01:20:38;0.77;;;0.70;;
17422;SDS011;8829;47.932;7.810;2023-11-21T01:23:05;0.87;;;0.70;;
17422;SDS011;8829;47.932;7.810;2023-11-21T01:25:31;0.63;;;0.57;;
17422;SDS011;8829;47.932;7.810;2023-11-21T01:27:58;1.03;;;1.03;;
17422;SDS011;8829;47.932;7.810;2023-11-21T01:30:26;1.23;;;0.50;;
17422;SDS011;8829;47.932;7.810;2023-11-21T01:32:53;0.50;;;0.50;;
17422;SDS011;8829;47.932;7.810;2023-11-21T01:35:20;0.67;;;0.67;;
17422;SDS011;8829;47.932;7.810;2023-11-21T01:37:46;0.93;;;0.80;;
17422;SDS011;8829;47.932;7.810;2023-11-21T01:40:13;0.80;;;0.80;;
17422;SDS011;8829;47.932;7.810;2023-11-21T01:42:40;0.60;;;0.60;;
17422;SDS011;8829;47.932;7.810;2023-11-21T01:45:08;2.47;;;0.80;;
17422;SDS011;8829;47.932;7.810;2023-11-21T01:47:39;0.97;;;0.70;;
17422;SDS011;8829;47.932;7.810;2023-11-21T01:50:07;3.00;;;0.90;;
17422;SDS011;8829;47.932;7.810;2023-11-21T01:52:37;0.67;;;0.60;;
17422;SDS011;8829;47.932;7.810;2023-11-21T01:55:06;0.67;;;0.67;;
17422;SDS011;8829;47.932;7.810;2023-11-21T01:57:34;1.20;;;0.70;;
17422;SDS011;8829;47.932;7.810;2023-11-21T02:00:02;0.97;;;0.67;;
17422;SDS011;8829;47.932;7.810;2023-11-21T02:02:41;1.70;;;0.80;;
17422;SDS011;8829;47.932;7.810;2023-11-21T02:05:09;0.60;;;0.60;;
17422;SDS011;8829;47.932;7.810;2023-11-21T02:07:37;0.80;;;0.80;;
17422;SDS011;8829;47.932;7.810;2023-11-21T02:10:04;1.03;;;0.80;;
17422;SDS011;8829;47.932;7.810;2023-11-21T02:12:32;1.93;;;1.10;;
17422;SDS011;8829;47.932;7.810;2023-11-21T02:15:00;1.30;;;0.60;;
17422;SDS011;8829;47.932;7.810;2023-11-21T02:17:27;1.73;;;0.67;;
17422;SDS011;8829;47.932;7.810;2023-11-21T02:19:56;2.07;;;0.90;;
17422;SDS011;8829;47.932;7.810;2023-11-21T02:22:23;0.63;;;0.63;;
17422;SDS011;8829;47.932;7.810;2023-11-21T02:24:54;1.27;;;0.63;;
17422;SDS011;8829;47.932;7.810;2023-11-21T02:27:20;1.20;;;0.80;;
17422;SDS011;8829;47.932;7.810;2023-11-21T02:29:48;2.40;;;0.80;;
17422;SDS011;8829;47.932;7.810;2023-11-21T02:32:15;0.73;;;0.73;;
17422;SDS011;8829;47.932;7.810;2023-11-21T02:34:44;1.27;;;0.80;;
17422;SDS011;8829;47.932;7.810;2023-11-21T02:37:11;1.60;;;0.80;;
17422;SDS011;8829;47.932;7.810;2023-11-21T02:39:37;1.53;;;0.70;;
17422;SDS011;8829;47.932;7.810;2023-11-21T02:42:05;2.33;;;0.70;;
17422;SDS011;8829;47.932;7.810;2023-11-21T02:44:32;3.73;;;0.70;;
17422;SDS011;8829;47.932;7.810;2023-11-21T02:46:59;2.93;;;0.90;;
17422;SDS011;8829;47.932;7.810;2023-11-21T02:49:26;3.07;;;0.93;;
17422;SDS011;8829;47.932;7.810;2023-11-21T02:51:53;4.03;;;0.90;;
17422;SDS011;8829;47.932;7.810;2023-11-21T02:54:20;1.97;;;0.73;;
17422;SDS011;8829;47.932;7.810;2023-11-21T02:56:47;2.20;;;0.87;;
17422;SDS011;8829;47.932;7.810;2023-11-21T02:59:16;1.10;;;0.80;;
17422;SDS011;8829;47.932;7.810;2023-11-21T03:01:42;2.03;;;0.97;;
17422;SDS011;8829;47.932;7.810;2023-11-21T03:04:09;1.03;;;0.63;;
17422;SDS011;8829;47.932;7.810;2023-11-21T03:06:36;0.93;;;0.80;;
17422;SDS011;8829;47.932;7.810;2023-11-21T03:09:03;0.90;;;0.90;;
17422;SDS011;8829;47.932;7.810;2023-11-21T03:11:31;1.07;;;0.60;;
17422;SDS011;8829;47.932;7.810;2023-11-21T03:13:58;2.23;;;0.60;;
17422;SDS011;8829;47.932;7.810;2023-11-21T03:16:26;1.70;;;0.80;;
17422;SDS011;8829;47.932;7.810;2023-11-21T03:18:54;1.17;;;0.60;;
17422;SDS011;8829;47.932;7.810;2023-11-21T03:21:20;1.23;;;0.70;;
17422;SDS011;8829;47.932;7.810;2023-11-21T03:23:47;4.43;;;1.17;;
17422;SDS011;8829;47.932;7.810;2023-11-21T03:26:14;1.70;;;0.90;;
17422;SDS011;8829;47.932;7.810;2023-11-21T03:28:41;1.13;;;0.70;;
17422;SDS011;8829;47.932;7.810;2023-11-21T03:31:08;1.43;;;0.70;;
17422;SDS011;8829;47.932;7.810;2023-11-21T03:33:37;1.93;;;0.83;;
17422;SDS011;8829;47.932;7.810;2023-11-21T03:36:03;0.60;;;0.50;;
17422;SDS011;8829;47.932;7.810;2023-11-21T03:38:33;1.40;;;0.60;;
17422;SDS011;8829;47.932;7.810;2023-11-21T03:40:59;0.60;;;0.60;;
17422;SDS011;8829;47.932;7.810;2023-11-21T03:43:26;1.10;;;0.83;;
17422;SDS011;8829;47.932;7.810;2023-11-21T03:45:53;1.87;;;0.70;;
17422;SDS011;8829;47.932;7.810;2023-11-21T03:48:19;0.77;;;0.73;;
17422;SDS011;8829;47.932;7.810;2023-11-21T03:50:47;1.47;;;0.93;;
17422;SDS011;8829;47.932;7.810;2023-11-21T03:53:14;0.60;;;0.60;;
17422;SDS011;8829;47.932;7.810;2023-11-21T03:55:41;0.90;;;0.77;;
17422;SDS011;8829;47.932;7.810;2023-11-21T03:58:08;0.70;;;0.70;;
17422;SDS011;8829;47.932;7.810;2023-11-21T04:00:35;2.37;;;1.00;;
17422;SDS011;8829;47.932;7.810;2023-11-21T04:03:01;0.70;;;0.70;;
17422;SDS011;8829;47.932;7.810;2023-11-21T04:05:28;0.60;;;0.60;;
17422;SDS011;8829;47.932;7.810;2023-11-21T04:07:57;1.70;;;0.60;;
17422;SDS011;8829;47.932;7.810;2023-11-21T04:10:24;0.80;;;0.80;;
17422;SDS011;8829;47.932;7.810;2023-11-21T04:12:51;0.87;;;0.70;;
17422;SDS011;8829;47.932;7.810;2023-11-21T04:15:17;1.33;;;0.97;;
17422;SDS011;8829;47.932;7.810;2023-11-21T04:17:44;1.50;;;0.60;;
17422;SDS011;8829;47.932;7.810;2023-11-21T04:20:11;0.53;;;0.53;;
17422;SDS011;8829;47.932;7.810;2023-11-21T04:22:38;0.80;;;0.80;;
17422;SDS011;8829;47.932;7.810;2023-11-21T04:25:09;0.97;;;0.70;;
17422;SDS011;8829;47.932;7.810;2023-11-21T04:27:37;1.63;;;0.80;;
17422;SDS011;8829;47.932;7.810;2023-11-21T04:30:05;1.50;;;0.80;;
17422;SDS011;8829;47.932;7.810;2023-11-21T04:32:32;1.30;;;0.83;;
17422;SDS011;8829;47.932;7.810;2023-11-21T04:34:59;1.07;;;0.70;;
17422;SDS011;8829;47.932;7.810;2023-11-21T04:37:26;1.83;;;0.60;;
17422;SDS011;8829;47.932;7.810;2023-11-21T04:39:53;0.50;;;0.50;;
17422;SDS011;8829;47.932;7.810;2023-11-21T04:42:21;1.93;;;0.63;;
17422;SDS011;8829;47.932;7.810;2023-11-21T04:44:48;0.50;;;0.50;;
17422;SDS011;8829;47.932;7.810;2023-11-21T04:47:15;0.53;;;0.53;;
17422;SDS011;8829;47.932;7.810;2023-11-21T04:49:43;0.97;;;0.47;;
17422;SDS011;8829;47.932;7.810;2023-11-21T04:52:09;1.10;;;0.80;;
17422;SDS011;8829;47.932;7.810;2023-11-21T04:54:36;0.97;;;0.70;;
17422;SDS011;8829;47.932;7.810;2023-11-21T04:57:05;0.77;;;0.60;;
17422;SDS011;8829;47.932;7.810;2023-11-21T04:59:33;0.50;;;0.50;;
17422;SDS011;8829;47.932;7.810;2023-11-21T05:02:00;1.17;;;0.60;;
17422;SDS011;8829;47.932;7.810;2023-11-21T05:04:27;1.23;;;0.70;;
17422;SDS011;8829;47.932;7.810;2023-11-21T05:06:54;0.63;;;0.60;;
17422;SDS011;8829;47.932;7.810;2023-11-21T05:09:21;0.53;;;0.50;;
17422;SDS011;8829;47.932;7.810;2023-11-21T05:11:47;0.50;;;0.50;;
17422;SDS011;8829;47.932;7.810;2023-11-21T05:14:14;2.00;;;0.57;;
17422;SDS011;8829;47.932;7.810;2023-11-21T05:16:43;0.90;;;0.50;;
17422;SDS011;8829;47.932;7.810;2023-11-21T05:19:09;0.63;;;0.53;;
17422;SDS011;8829;47.932;7.810;2023-11-21T05:21:38;2.47;;;0.70;;
17422;SDS011;8829;47.932;7.810;2023-11-21T05:24:05;0.53;;;0.53;;
17422;SDS011;8829;47.932;7.810;2023-11-21T05:26:32;3.53;;;1.13;;
17422;SDS011;8829;47.932;7.810;2023-11-21T05:28:59;0.53;;;0.53;;
17422;SDS011;8829;47.932;7.810;2023-11-21T05:31:25;1.13;;;1.03;;
17422;SDS011;8829;47.932;7.810;2023-11-21T05:33:54;4.00;;;1.70;;
17422;SDS011;8829;47.932;7.810;2023-11-21T05:36:21;2.87;;;2.60;;
17422;SDS011;8829;47.932;7.810;2023-11-21T05:38:48;3.10;;;2.80;;
17422;SDS011;8829;47.932;7.810;2023-11-21T05:41:15;1.27;;;1.17;;
17422;SDS011;8829;47.932;7.810;2023-11-21T05:43:42;1.40;;;0.80;;
17422;SDS011;8829;47.932;7.810;2023-11-21T05:46:08;0.80;;;0.80;;
17422;SDS011;8829;47.932;7.810;2023-11-21T05:48:36;2.73;;;2.53;;
17422;SDS011;8829;47.932;7.810;2023-11-21T05:51:04;2.03;;;1.00;;
17422;SDS011;8829;47.932;7.810;2023-11-21T05:53:33;2.40;;;0.80;;
17422;SDS011;8829;47.932;7.810;2023-11-21T05:55:59;2.60;;;1.00;;
17422;SDS011;8829;47.932;7.810;2023-11-21T05:58:26;3.17;;;1.10;;
17422;SDS011;8829;47.932;7.810;2023-11-21T06:00:53;1.40;;;1.30;;
17422;SDS011;8829;47.932;7.810;2023-11-21T06:03:20;1.73;;;1.60;;
17422;SDS011;8829;47.932;7.810;2023-11-21T06:05:48;3.83;;;1.93;;
17422;SDS011;8829;47.932;7.810;2023-11-21T06:08:16;3.37;;;2.40;;
17422;SDS011;8829;47.932;7.810;2023-11-21T06:10:43;2.23;;;1.50;;
17422;SDS011;8829;47.932;7.810;2023-11-21T06:13:14;2.63;;;1.00;;
17422;SDS011;8829;47.932;7.810;2023-11-21T06:15:41;1.83;;;1.70;;
17422;SDS011;8829;47.932;7.810;2023-11-21T06:18:07;2.57;;;1.60;;
17422;SDS011;8829;47.932;7.810;2023-11-21T06:20:35;1.10;;;1.00;;
17422;SDS011;8829;47.932;7.810;2023-11-21T06:23:03;2.77;;;1.40;;
17422;SDS011;8829;47.932;7.810;2023-11-21T06:25:32;2.53;;;1.43;;
17422;SDS011;8829;47.932;7.810;2023-11-21T06:28:01;1.37;;;1.27;;
17422;SDS011;8829;47.932;7.810;2023-11-21T06:30:28;1.93;;;1.30;;
17422;SDS011;8829;47.932;7.810;2023-11-21T06:32:54;1.47;;;1.30;;
17422;SDS011;8829;47.932;7.810;2023-11-21T06:35:21;1.47;;;1.37;;
17422;SDS011;8829;47.932;7.810;2023-11-21T06:37:48;2.00;;;1.80;;
17422;SDS011;8829;47.932;7.810;2023-11-21T06:40:16;2.30;;;1.60;;
17422;SDS011;8829;47.932;7.810;2023-11-21T06:42:44;1.40;;;1.30;;
17422;SDS011;8829;47.932;7.810;2023-11-21T06:45:11;1.47;;;1.37;;
17422;SDS011;8829;47.932;7.810;2023-11-21T06:47:39;1.20;;;1.00;;
17422;SDS011;8829;47.932;7.810;2023-11-21T06:50:06;1.63;;;1.43;;
17422;SDS011;8829;47.932;7.810;2023-11-21T06:52:34;1.23;;;1.00;;
17422;SDS011;8829;47.932;7.810;2023-11-21T06:55:00;1.30;;;1.20;;
17422;SDS011;8829;47.932;7.810;2023-11-21T06:57:28;2.80;;;2.60;;
17422;SDS011;8829;47.932;7.810;2023-11-21T06:59:56;1.20;;;1.10;;
17422;SDS011;8829;47.932;7.810;2023-11-21T07:02:23;1.20;;;1.10;;
17422;SDS011;8829;47.932;7.810;2023-11-21T07:04:50;1.33;;;1.23;;
17422;SDS011;8829;47.932;7.810;2023-11-21T07:07:17;1.83;;;1.10;;
17422;SDS011;8829;47.932;7.810;2023-11-21T07:09:44;1.30;;;1.20;;
17422;SDS011;8829;47.932;7.810;2023-11-21T07:12:11;0.87;;;0.87;;
17422;SDS011;8829;47.932;7.810;2023-11-21T07:14:39;2.13;;;1.40;;
17422;SDS011;8829;47.932;7.810;2023-11-21T07:17:09;0.77;;;0.77;;
17422;SDS011;8829;47.932;7.810;2023-11-21T07:19:37;0.90;;;0.90;;
17422;SDS011;8829;47.932;7.810;2023-11-21T07:22:03;1.20;;;1.10;;
17422;SDS011;8829;47.932;7.810;2023-11-21T07:24:31;1.10;;;1.00;;
17422;SDS011;8829;47.932;7.810;2023-11-21T07:26:58;1.50;;;0.80;;
17422;SDS011;8829;47.932;7.810;2023-11-21T07:29:25;4.03;;;0.90;;
17422;SDS011;8829;47.932;7.810;2023-11-21T07:31:54;2.27;;;1.00;;
17422;SDS011;8829;47.932;7.810;2023-11-21T07:34:22;1.23;;;0.80;;
17422;SDS011;8829;47.932;7.810;2023-11-21T07:36:49;0.70;;;0.70;;
17422;SDS011;8829;47.932;7.810;2023-11-21T07:39:16;0.70;;;0.70;;
17422;SDS011;8829;47.932;7.810;2023-11-21T07:41:42;0.87;;;0.87;;
17422;SDS011;8829;47.932;7.810;2023-11-21T07:44:13;1.10;;;1.10;;
17422;SDS011;8829;47.932;7.810;2023-11-21T07:46:41;1.10;;;1.03;;
17422;SDS011;8829;47.932;7.810;2023-11-21T07:49:09;1.20;;;1.20;;
17422;SDS011;8829;47.932;7.810;2023-11-21T07:51:37;2.50;;;1.60;;
17422;SDS011;8829;47.932;7.810;2023-11-21T07:54:04;1.37;;;1.33;;
17422;SDS011;8829;47.932;7.810;2023-11-21T07:56:31;1.17;;;1.13;;
17422;SDS011;8829;47.932;7.810;2023-11-21T07:58:58;1.33;;;1.30;;
17422;SDS011;8829;47.932;7.810;2023-11-21T08:01:25;1.17;;;1.10;;
17422;SDS011;8829;47.932;7.810;2023-11-21T08:03:53;1.60;;;1.50;;
17422;SDS011;8829;47.932;7.810;2023-11-21T08:06:22;1.00;;;1.00;;
17422;SDS011;8829;47.932;7.810;2023-11-21T08:08:50;1.60;;;1.30;;
17422;SDS011;8829;47.932;7.810;2023-11-21T08:11:17;1.10;;;1.10;;
17422;SDS011;8829;47.932;7.810;2023-11-21T08:13:44;1.30;;;1.20;;
17422;SDS011;8829;47.932;7.810;2023-11-21T08:16:11;1.50;;;1.40;;
17422;SDS011;8829;47.932;7.810;2023-11-21T08:18:38;1.73;;;1.40;;
17422;SDS011;8829;47.932;7.810;2023-11-21T08:21:06;1.77;;;1.67;;
17422;SDS011;8829;47.932;7.810;2023-11-21T08:23:33;1.83;;;1.20;;
17422;SDS011;8829;47.932;7.810;2023-11-21T08:26:01;1.30;;;1.20;;
17422;SDS011;8829;47.932;7.810;2023-11-21T08:28:28;2.43;;;1.20;;
17422;SDS011;8829;47.932;7.810;2023-11-21T08:30:55;0.80;;;0.80;;
17422;SDS011;8829;47.932;7.810;2023-11-21T08:33:22;0.73;;;0.73;;
17422;SDS011;8829;47.932;7.810;2023-11-21T08:35:49;0.60;;;0.60;;
17422;SDS011;8829;47.932;7.810;2023-11-21T08:38:15;3.20;;;2.60;;
17422;SDS011;8829;47.932;7.810;2023-11-21T08:40:42;0.70;;;0.70;;
17422;SDS011;8829;47.932;7.810;2023-11-21T08:43:10;1.80;;;1.67;;
17422;SDS011;8829;47.932;7.810;2023-11-21T08:45:39;1.43;;;1.43;;
17422;SDS011;8829;47.932;7.810;2023-11-21T08:48:05;1.10;;;1.10;;
17422;SDS011;8829;47.932;7.810;2023-11-21T08:50:32;1.10;;;1.00;;
17422;SDS011;8829;47.932;7.810;2023-11-21T08:52:59;0.80;;;0.80;;
17422;SDS011;8829;47.932;7.810;2023-11-21T08:55:26;0.83;;;0.80;;
17422;SDS011;8829;47.932;7.810;2023-11-21T08:57:53;1.73;;;1.57;;
17422;SDS011;8829;47.932;7.810;2023-11-21T09:00:21;1.83;;;1.73;;
17422;SDS011;8829;47.932;7.810;2023-11-21T09:02:48;1.23;;;0.90;;
17422;SDS011;8829;47.932;7.810;2023-11-21T09:05:15;0.63;;;0.63;;
17422;SDS011;8829;47.932;7.810;2023-11-21T09:07:42;0.83;;;0.83;;
17422;SDS011;8829;47.932;7.810;2023-11-21T09:10:11;0.70;;;0.70;;
17422;SDS011;8829;47.932;7.810;2023-11-21T09:12:38;0.87;;;0.77;;
17422;SDS011;8829;47.932;7.810;2023-11-21T09:15:05;0.70;;;0.70;;
17422;SDS011;8829;47.932;7.810;2023-11-21T09:17:36;0.50;;;0.50;;
17422;SDS011;8829;47.932;7.810;2023-11-21T09:20:03;0.57;;;0.57;;
17422;SDS011;8829;47.932;7.810;2023-11-21T09:22:31;0.60;;;0.60;;
17422;SDS011;8829;47.932;7.810;2023-11-21T09:24:57;0.60;;;0.60;;
17422;SDS011;8829;47.932;7.810;2023-11-21T09:27:24;0.60;;;0.60;;
17422;SDS011;8829;47.932;7.810;2023-11-21T09:29:51;0.50;;;0.50;;
17422;SDS011;8829;47.932;7.810;2023-11-21T09:32:19;1.03;;;0.80;;
17422;SDS011;8829;47.932;7.810;2023-11-21T09:34:47;0.63;;;0.63;;
17422;SDS011;8829;47.932;7.810;2023-11-21T09:37:15;1.80;;;0.80;;
17422;SDS011;8829;47.932;7.810;2023-11-21T09:39:42;2.20;;;0.70;;
17422;SDS011;8829;47.932;7.810;2023-11-21T09:42:10;0.80;;;0.80;;
17422;SDS011;8829;47.932;7.810;2023-11-21T09:44:42;0.60;;;0.60;;
17422;SDS011;8829;47.932;7.810;2023-11-21T09:47:14;0.53;;;0.53;;
17422;SDS011;8829;47.932;7.810;2023-11-21T09:49:42;1.23;;;0.50;;
17422;SDS011;8829;47.932;7.810;2023-11-21T09:52:14;0.40;;;0.40;;
17422;SDS011;8829;47.932;7.810;2023-11-21T09:54:47;0.50;;;0.50;;
17422;SDS011;8829;47.932;7.810;2023-11-21T09:57:15;0.40;;;0.40;;
17422;SDS011;8829;47.932;7.810;2023-11-21T09:59:42;0.70;;;0.70;;
17422;SDS011;8829;47.932;7.810;2023-11-21T10:02:11;1.47;;;1.37;;
17422;SDS011;8829;47.932;7.810;2023-11-21T10:04:38;1.60;;;0.53;;
17422;SDS011;8829;47.932;7.810;2023-11-21T10:07:05;0.67;;;0.67;;
17422;SDS011;8829;47.932;7.810;2023-11-21T10:09:35;0.77;;;0.67;;
17422;SDS011;8829;47.932;7.810;2023-11-21T10:12:04;0.60;;;0.60;;
17422;SDS011;8829;47.932;7.810;2023-11-21T10:14:33;1.20;;;0.77;;
17422;SDS011;8829;47.932;7.810;2023-11-21T10:17:03;0.70;;;0.70;;
17422;SDS011;8829;47.932;7.810;2023-11-21T10:19:30;0.60;;;0.60;;
17422;SDS011;8829;47.932;7.810;2023-11-21T10:21:58;0.70;;;0.70;;
17422;SDS011;8829;47.932;7.810;2023-11-21T10:24:27;0.57;;;0.57;;
17422;SDS011;8829;47.932;7.810;2023-11-21T10:26:55;0.70;;;0.70;;
17422;SDS011;8829;47.932;7.810;2023-11-21T10:29:21;0.70;;;0.70;;
17422;SDS011;8829;47.932;7.810;2023-11-21T10:31:49;0.80;;;0.80;;
17422;SDS011;8829;47.932;7.810;2023-11-21T10:34:17;0.80;;;0.80;;
17422;SDS011;8829;47.932;7.810;2023-11-21T10:36:45;1.13;;;0.80;;
17422;SDS011;8829;47.932;7.810;2023-11-21T10:39:13;1.03;;;1.00;;
17422;SDS011;8829;47.932;7.810;2023-11-21T10:41:43;2.90;;;1.97;;
17422;SDS011;8829;47.932;7.810;2023-11-21T10:44:12;0.83;;;0.83;;
17422;SDS011;8829;47.932;7.810;2023-11-21T10:46:45;0.90;;;0.90;;
17422;SDS011;8829;47.932;7.810;2023-11-21T10:49:15;0.90;;;0.90;;
17422;SDS011;8829;47.932;7.810;2023-11-21T10:51:43;1.30;;;1.00;;
17422;SDS011;8829;47.932;7.810;2023-11-21T10:54:10;0.83;;;0.80;;
17422;SDS011;8829;47.932;7.810;2023-11-21T10:56:37;0.80;;;0.80;;
17422;SDS011;8829;47.932;7.810;2023-11-21T10:59:08;0.90;;;0.90;;
17422;SDS011;8829;47.932;7.810;2023-11-21T11:01:41;2.47;;;1.60;;
17422;SDS011;8829;47.932;7.810;2023-11-21T11:04:11;1.50;;;1.40;;
17422;SDS011;8829;47.932;7.810;2023-11-21T11:06:41;1.00;;;1.00;;
17422;SDS011;8829;47.932;7.810;2023-11-21T11:09:10;1.00;;;0.90;;
17422;SDS011;8829;47.932;7.810;2023-11-21T11:11:39;0.90;;;0.90;;
17422;SDS011;8829;47.932;7.810;2023-11-21T11:14:06;1.10;;;1.10;;
17422;SDS011;8829;47.932;7.810;2023-11-21T11:16:37;1.40;;;1.30;;
17422;SDS011;8829;47.932;7.810;2023-11-21T11:19:07;1.20;;;1.10;;
17422;SDS011;8829;47.932;7.810;2023-11-21T11:21:38;0.90;;;0.90;;
17422;SDS011;8829;47.932;7.810;2023-11-21T11:24:17;1.13;;;1.03;;
17422;SDS011;8829;47.932;7.810;2023-11-21T11:26:55;0.90;;;0.90;;
17422;SDS011;8829;47.932;7.810;2023-11-21T11:29:29;1.20;;;0.83;;
17422;SDS011;8829;47.932;7.810;2023-11-21T11:32:08;1.10;;;0.93;;
17422;SDS011;8829;47.932;7.810;2023-11-21T11:34:46;0.93;;;0.87;;
17422;SDS011;8829;47.932;7.810;2023-11-21T11:37:18;1.00;;;1.00;;
17422;SDS011;8829;47.932;7.810;2023-11-21T11:39:45;0.90;;;0.90;;
17422;SDS011;8829;47.932;7.810;2023-11-21T11:42:12;0.90;;;0.90;;
17422;SDS011;8829;47.932;7.810;2023-11-21T11:44:52;0.90;;;0.90;;
17422;SDS011;8829;47.932;7.810;2023-11-21T11:47:21;1.30;;;1.20;;
17422;SDS011;8829;47.932;7.810;2023-11-21T11:50:01;1.57;;;1.47;;
17422;SDS011;8829;47.932;7.810;2023-11-21T11:52:32;1.10;;;1.10;;
17422;SDS011;8829;47.932;7.810;2023-11-21T11:55:04;1.50;;;1.40;;
17422;SDS011;8829;47.932;7.810;2023-11-21T11:57:32;1.00;;;0.90;;
17422;SDS011;8829;47.932;7.810;2023-11-21T12:00:07;1.07;;;1.07;;
17422;SDS011;8829;47.932;7.810;2023-11-21T12:02:36;1.43;;;1.33;;
17422;SDS011;8829;47.932;7.810;2023-11-21T12:05:08;2.13;;;2.03;;
17422;SDS011;8829;47.932;7.810;2023-11-21T12:07:45;1.60;;;1.50;;
17422;SDS011;8829;47.932;7.810;2023-11-21T12:10:13;1.00;;;1.00;;
17422;SDS011;8829;47.932;7.810;2023-11-21T12:12:42;3.00;;;2.40;;
17422;SDS011;8829;47.932;7.810;2023-11-21T12:15:11;1.40;;;1.33;;
17422;SDS011;8829;47.932;7.810;2023-11-21T12:17:38;1.33;;;1.33;;
17422;SDS011;8829;47.932;7.810;2023-11-21T12:20:05;1.40;;;1.30;;
17422;SDS011;8829;47.932;7.810;2023-11-21T12:22:40;2.00;;;1.90;;
17422;SDS011;8829;47.932;7.810;2023-11-21T12:25:12;1.20;;;1.20;;
17422;SDS011;8829;47.932;7.810;2023-11-21T12:27:41;1.13;;;1.00;;
17422;SDS011;8829;47.932;7.810;2023-11-21T12:30:10;1.20;;;1.10;;
17422;SDS011;8829;47.932;7.810;2023-11-21T12:32:40;1.50;;;1.40;;
17422;SDS011;8829;47.932;7.810;2023-11-21T12:35:09;1.00;;;1.00;;
17422;SDS011;8829;47.932;7.810;2023-11-21T12:37:37;0.80;;;0.80;;
17422;SDS011;8829;47.932;7.810;2023-11-21T12:40:05;1.30;;;1.30;;
17422;SDS011;8829;47.932;7.810;2023-11-21T12:42:36;1.50;;;1.40;;
17422;SDS011;8829;47.932;7.810;2023-11-21T12:45:07;1.10;;;1.10;;
17422;SDS011;8829;47.932;7.810;2023-11-21T12:47:39;1.13;;;1.03;;
17422;SDS011;8829;47.932;7.810;2023-11-21T12:50:09;2.50;;;2.30;;
17422;SDS011;8829;47.932;7.810;2023-11-21T12:52:40;1.80;;;1.70;;
17422;SDS011;8829;47.932;7.810;2023-11-21T12:55:09;1.67;;;1.57;;
17422;SDS011;8829;47.932;7.810;2023-11-21T12:57:40;1.80;;;1.70;;
17422;SDS011;8829;47.932;7.810;2023-11-21T13:00:09;2.30;;;2.20;;
17422;SDS011;8829;47.932;7.810;2023-11-21T13:02:50;3.13;;;2.30;;
17422;SDS011;8829;47.932;7.810;2023-11-21T13:05:24;2.70;;;1.90;;
17422;SDS011;8829;47.932;7.810;2023-11-21T13:07:53;2.30;;;2.20;;
17422;SDS011;8829;47.932;7.810;2023-11-21T13:10:22;1.90;;;1.80;;
17422;SDS011;8829;47.932;7.810;2023-11-21T13:12:52;2.30;;;2.20;;
17422;SDS011;8829;47.932;7.810;2023-11-21T13:15:20;2.10;;;2.00;;
17422;SDS011;8829;47.932;7.810;2023-11-21T13:17:46;2.67;;;2.47;;
17422;SDS011;8829;47.932;7.810;2023-11-21T13:20:15;1.97;;;1.87;;
17422;SDS011;8829;47.932;7.810;2023-11-21T13:22:47;2.53;;;2.33;;
17422;SDS011;8829;47.932;7.810;2023-11-21T13:25:15;1.93;;;1.83;;
17422;SDS011;8829;47.932;7.810;2023-11-21T13:27:42;1.53;;;1.53;;
17422;SDS011;8829;47.932;7.810;2023-11-21T13:30:11;2.00;;;1.77;;
17422;SDS011;8829;47.932;7.810;2023-11-21T13:32:40;1.80;;;1.70;;
17422;SDS011;8829;47.932;7.810;2023-11-21T13:35:07;3.00;;;2.80;;
17422;SDS011;8829;47.932;7.810;2023-11-21T13:37:40;3.37;;;3.07;;
17422;SDS011;8829;47.932;7.810;2023-11-21T13:40:09;2.97;;;2.77;;
17422;SDS011;8829;47.932;7.810;2023-11-21T13:42:39;3.17;;;2.73;;
17422;SDS011;8829;47.932;7.810;2023-11-21T13:45:08;2.67;;;2.57;;
17422;SDS011;8829;47.932;7.810;2023-11-21T13:47:37;3.00;;;2.80;;
17422;SDS011;8829;47.932;7.810;2023-11-21T13:50:05;2.20;;;2.10;;
17422;SDS011;8829;47.932;7.810;2023-11-21T13:52:41;2.27;;;2.07;;
17422;SDS011;8829;47.932;7.810;2023-11-21T13:55:10;2.30;;;2.10;;
17422;SDS011;8829;47.932;7.810;2023-11-21T13:57:40;2.23;;;2.13;;
17422;SDS011;8829;47.932;7.810;2023-11-21T14:00:10;2.07;;;1.97;;
17422;SDS011;8829;47.932;7.810;2023-11-21T14:02:57;3.03;;;2.63;;
17422;SDS011;8829;47.932;7.810;2023-11-21T14:05:25;1.80;;;1.70;;
17422;SDS011;8829;47.932;7.810;2023-11-21T14:07:54;2.40;;;2.20;;
17422;SDS011;8829;47.932;7.810;2023-11-21T14:10:28;3.10;;;2.90;;
17422;SDS011;8829;47.932;7.810;2023-11-21T14:13:02;3.80;;;3.60;;
17422;SDS011;8829;47.932;7.810;2023-11-21T14:15:30;2.90;;;2.70;;
17422;SDS011;8829;47.932;7.810;2023-11-21T14:17:58;3.17;;;2.87;;
17422;SDS011;8829;47.932;7.810;2023-11-21T14:20:27;3.40;;;3.20;;
17422;SDS011;8829;47.932;7.810;2023-11-21T14:22:55;3.27;;;2.90;;
17422;SDS011;8829;47.932;7.810;2023-11-21T14:25:22;3.40;;;3.10;;
17422;SDS011;8829;47.932;7.810;2023-11-21T14:27:50;2.90;;;2.70;;
17422;SDS011;8829;47.932;7.810;2023-11-21T14:30:17;2.83;;;2.57;;
17422;SDS011;8829;47.932;7.810;2023-11-21T14:32:47;3.30;;;3.10;;
17422;SDS011;8829;47.932;7.810;2023-11-21T14:35:15;3.07;;;2.87;;
17422;SDS011;8829;47.932;7.810;2023-11-21T14:37:42;3.20;;;3.00;;
17422;SDS011;8829;47.932;7.810;2023-11-21T14:40:10;2.90;;;2.73;;
17422;SDS011;8829;47.932;7.810;2023-11-21T14:42:40;3.90;;;3.60;;
17422;SDS011;8829;47.932;7.810;2023-11-21T14:45:10;2.67;;;2.47;;
17422;SDS011;8829;47.932;7.810;2023-11-21T14:47:38;3.30;;;3.00;;
17422;SDS011;8829;47.932;7.810;2023-11-21T14:50:09;3.80;;;3.40;;
17422;SDS011;8829;47.932;7.810;2023-11-21T14:53:04;2.10;;;2.00;;
17422;SDS011;8829;47.932;7.810;2023-11-21T14:55:31;1.73;;;1.70;;
17422;SDS011;8829;47.932;7.810;2023-11-21T14:58:06;2.60;;;2.40;;
17422;SDS011;8829;47.932;7.810;2023-11-21T15:00:37;1.80;;;1.70;;
17422;SDS011;8829;47.932;7.810;2023-11-21T15:03:10;2.00;;;1.90;;
17422;SDS011;8829;47.932;7.810;2023-11-21T15:05:46;2.67;;;2.40;;
17422;SDS011;8829;47.932;7.810;2023-11-21T15:08:13;2.50;;;2.30;;